Sarandi, Argentina
Current Conditions -  °F | °C
As of 3:00 PM on Tuesday 27 Jan 2015 (Local Time) from SABE Reporting Station
Broken Clouds Broken Clouds  
Wind Chill: 91°   Ceiling: 10000
Heat Index: 102°   Visibility: 6mi
Dew Point: 75°   Wind: 6mph
Humidity: 59%   Direction: 20°NNE
Pressure: 29.68"   Gusts: NA
Location:  34.67°S, 58.33°W
Report Text: SABE 271800Z 02005KT 9999 FEW015 BKN10033/24 Q1005
Loading
Personal Weather Stations






























Interactive Weather Map New forecast layout! Learn more

10-Day Weather Forecast

Advertisements
Track Severe Weather on mobile